Time;durP1;ratioP1;P1;durP2;ratioP2;P2;SDS_P1;SDS_P2;PMS_P1;PMS_P2;Temp;Humidity;BMP_temperature;BMP_pressure;BME280_temperature;BME280_humidity;BME280_pressure;Samples;Min_cycle;Max_cycle;Signal;HPM_P1;HPM_P2
2022/11/05 00:10:43;;;;;;;52.50;31.30;;;;;;;10.15;94.09;97503.08;106238;1298;138948;-77
2022/11/05 00:18:39;;;;;;;51.90;29.90;;;;;;;10.14;94.03;97503.02;106261;1312;138917;-76
2022/11/05 00:25:12;;;;;;;49.30;31.00;;;;;;;10.13;94.32;97503.34;106513;1300;22179;-76
2022/11/05 00:26:36;;;;;;;54.70;32.70;;;;;;;10.13;94.44;97502.73;106576;1310;22185;-76
2022/11/05 00:29:02;;;;;;;52.40;30.60;;;;;;;10.13;94.15;97506.05;106452;1310;140244;-76
2022/11/05 00:31:29;;;;;;;54.50;32.50;;;;;;;10.12;94.27;97512.36;106430;1298;22238;-76
2022/11/05 00:33:55;;;;;;;54.40;34.00;;;;;;;10.11;94.16;97513.23;106403;1311;22305;-76
2022/11/05 00:36:21;;;;;;;54.90;35.30;;;;;;;10.11;94.28;97508.94;106373;1310;138833;-76
2022/11/05 00:38:47;;;;;;;54.10;34.90;;;;;;;10.11;94.47;97506.27;106507;1310;22221;-76
2022/11/05 00:41:13;;;;;;;55.00;32.80;;;;;;;10.10;94.58;97503.81;106353;1296;139017;-76
2022/11/05 00:46:41;;;;;;;54.00;33.20;;;;;;;10.08;94.19;97506.30;105722;1318;22210;-76
2022/11/05 00:52:54;;;;;;;57.50;31.90;;;;;;;10.01;94.14;97515.14;106619;1295;22265;-76
2022/11/05 00:54:38;;;;;;;52.30;32.40;;;;;;;9.94;94.23;97507.70;106447;1310;138730;-76
2022/11/05 00:57:07;;;;;;;51.70;32.40;;;;;;;9.91;94.52;97509.55;106558;1307;23051;-76
2022/11/05 00:59:33;;;;;;;50.20;30.80;;;;;;;9.88;94.48;97513.02;106459;1305;138878;-76
2022/11/05 01:02:00;;;;;;;50.40;33.30;;;;;;;9.85;94.53;97516.65;106531;1305;22279;-76
2022/11/05 01:04:26;;;;;;;56.50;33.50;;;;;;;9.81;94.55;97516.17;106506;1310;22326;-76
2022/11/05 01:06:54;;;;;;;54.60;33.50;;;;;;;9.79;94.85;97515.02;106433;1288;138545;-76
2022/11/05 01:09:22;;;;;;;49.10;30.70;;;;;;;9.78;94.52;97527.36;106532;1309;22559;-76
2022/11/05 01:11:50;;;;;;;54.10;34.10;;;;;;;9.76;94.48;97533.98;106273;1299;138540;-76
2022/11/05 01:14:16;;;;;;;57.90;34.50;;;;;;;9.71;94.61;97527.92;106435;1310;22205;-76
2022/11/05 01:16:49;;;;;;;53.60;32.30;;;;;;;9.67;94.85;97519.75;106307;1312;138653;-76
2022/11/05 01:19:15;;;;;;;54.80;33.10;;;;;;;9.67;95.04;97520.39;106494;1310;22399;-77
2022/11/05 01:21:41;;;;;;;52.90;31.90;;;;;;;9.66;94.92;97520.67;106532;1302;22466;-77
2022/11/05 01:24:09;;;;;;;54.40;32.00;;;;;;;9.67;95.08;97526.52;106264;1308;138611;-76
2022/11/05 01:26:36;;;;;;;;;;;;;;;9.67;94.96;97531.55;106398;1310;22388;-77
2022/11/05 01:29:03;;;;;;;53.50;31.60;;;;;;;9.67;95.02;97539.04;106478;1301;124686;-76
2022/11/05 01:31:31;;;;;;;54.60;33.00;;;;;;;9.65;94.94;97543.81;106438;1310;22200;-76
2022/11/05 01:33:59;;;;;;;57.60;33.40;;;;;;;9.67;95.18;97547.79;106374;1298;22385;-76
2022/11/05 01:36:25;;;;;;;50.60;31.20;;;;;;;9.68;95.19;97545.80;106419;1310;138532;-76
2022/11/05 01:38:51;;;;;;;53.40;32.10;;;;;;;9.68;95.37;97545.75;106521;1288;22212;-77
2022/11/05 01:41:17;;;;;;;55.90;32.20;;;;;;;9.69;95.16;97548.45;106310;1303;138797;-76
2022/11/05 01:44:00;;;;;;;57.70;33.70;;;;;;;9.70;95.20;97551.62;106454;1297;22312;-76
2022/11/05 01:46:30;;;;;;;46.40;28.20;;;;;;;9.71;95.16;97554.23;106364;1312;22191;-76
2022/11/05 01:49:05;;;;;;;52.20;32.60;;;;;;;9.66;95.12;97563.02;106293;1312;139347;-76
2022/11/05 01:51:32;;;;;;;48.30;29.80;;;;;;;9.63;95.11;97560.16;106521;1310;22216;-76
2022/11/05 01:54:09;;;;;;;55.80;32.60;;;;;;;9.59;95.02;97558.93;106416;1295;138625;-77
2022/11/05 01:56:42;;;;;;;59.30;33.70;;;;;;;9.54;95.28;97557.39;106439;1310;22367;-76
2022/11/05 01:59:23;;;;;;;58.80;32.70;;;;;;;9.49;95.57;97554.52;106306;1310;138982;-77
2022/11/05 02:01:50;;;;;;;50.40;31.80;;;;;;;9.46;95.77;97561.73;106571;1310;22196;-78
2022/11/05 02:04:49;;;;;;;55.30;33.20;;;;;;;9.44;95.81;97569.31;106482;1295;22184;-76
2022/11/05 02:07:20;;;;;;;62.40;33.30;;;;;;;9.42;96.20;97570.88;106313;1311;23022;-76
2022/11/05 02:09:55;;;;;;;57.60;34.30;;;;;;;9.42;96.55;97575.16;106444;1310;22442;-76
2022/11/05 02:12:23;;;;;;;55.50;32.60;;;;;;;9.43;97.29;97570.83;106166;1313;138520;-75
2022/11/05 02:14:49;;;;;;;60.10;34.10;;;;;;;9.45;97.33;97566.16;106413;1288;22227;-75
2022/11/05 02:17:28;;;;;;;58.80;35.30;;;;;;;9.46;97.57;97570.63;106322;1310;138729;-76
2022/11/05 02:20:23;;;;;;;53.10;33.40;;;;;;;9.47;97.63;97570.48;106582;1310;22212;-75
2022/11/05 02:23:36;;;;;;;45.20;26.00;;;;;;;9.48;97.93;97571.52;105720;1310;139264;-77
2022/11/05 02:26:36;;;;;;;52.30;32.20;;;;;;;9.46;98.15;97573.36;105740;1318;22978;-75
2022/11/05 02:29:24;;;;;;;58.50;32.50;;;;;;;9.45;98.43;97577.47;105635;1318;138876;-76
2022/11/05 02:32:02;;;;;;;57.90;34.90;;;;;;;9.45;98.70;97587.26;105748;1318;22287;-76
2022/11/05 02:34:50;;;;;;;59.20;34.50;;;;;;;9.45;98.70;97592.96;105803;1302;22247;-76
2022/11/05 02:37:31;;;;;;;56.30;33.00;;;;;;;9.45;98.78;97594.71;105815;1318;22195;-76
2022/11/05 02:40:12;;;;;;;60.10;33.50;;;;;;;9.45;98.98;97593.89;105816;1313;22375;-75
2022/11/05 02:42:53;;;;;;;45.40;28.00;;;;;;;9.45;98.94;97600.09;105693;1318;138617;-76
2022/11/05 02:45:37;;;;;;;44.70;28.50;;;;;;;9.46;98.87;97609.81;105801;1317;22262;-76
2022/11/05 02:48:44;;;;;;;35.50;20.80;;;;;;;9.46;98.90;97614.66;105672;1317;138832;-76
2022/11/05 02:51:32;;;;;;;26.80;16.60;;;;;;;9.44;97.66;97616.27;105730;1318;22218;-76
2022/11/05 02:54:13;;;;;;;21.30;13.80;;;;;;;9.41;96.86;97623.86;105681;1318;138854;-76
2022/11/05 02:56:45;;;;;;;18.30;12.40;;;;;;;9.39;96.30;97626.98;105799;1318;23027;-76
2022/11/05 02:59:11;;;;;;;13.70;10.00;;;;;;;9.37;95.80;97641.87;105795;1310;138711;-77
2022/11/05 03:01:40;;;;;;;14.40;8.00;;;;;;;9.35;95.65;97645.64;106595;1310;22792;-76
2022/11/05 03:04:11;;;;;;;9.90;7.80;;;;;;;9.32;95.06;97655.68;106489;1313;22251;-77
2022/11/05 03:06:59;;;;;;;8.60;6.70;;;;;;;9.28;94.62;97656.45;106298;1298;138420;-76
2022/11/05 03:09:40;;;;;;;8.30;6.80;;;;;;;9.26;94.46;97663.44;106551;1310;23078;-77
2022/11/05 03:12:13;;;;;;;8.20;6.50;;;;;;;9.25;94.44;97667.13;106373;1310;138309;-76
2022/11/05 03:15:17;;;;;;;7.20;5.50;;;;;;;9.24;94.02;97671.34;106513;1296;22149;-78
2022/11/05 03:17:49;;;;;;;5.30;4.50;;;;;;;9.20;93.42;97681.37;106476;1310;138147;-77
2022/11/05 03:20:45;;;;;;;7.40;6.20;;;;;;;9.17;93.04;97686.71;106460;1311;22318;-77
2022/11/05 03:23:23;;;;;;;9.30;6.20;;;;;;;9.14;92.39;97694.00;106346;1310;138363;-76
2022/11/05 03:25:56;;;;;;;6.50;4.80;;;;;;;9.10;92.50;97693.30;106442;1298;23051;-77
2022/11/05 03:28:26;;;;;;;5.90;5.30;;;;;;;9.08;92.09;97686.06;106513;1310;23597;-77
2022/11/05 03:30:55;;;;;;;6.50;5.60;;;;;;;9.07;92.00;97688.55;106165;1304;138807;-77
2022/11/05 03:33:24;;;;;;;;;;;;;;;9.06;91.86;97694.91;106443;1312;22523;-77
2022/11/05 03:35:52;;;;;;;;;;;;;;;9.03;91.85;97695.08;106262;1298;124805;-77
2022/11/05 03:38:26;;;;;;;7.90;4.90;;;;;;;9.01;91.89;97698.64;106423;1312;22200;-78
2022/11/05 03:40:56;;;;;;;7.10;5.80;;;;;;;8.97;91.46;97699.13;106286;1312;138474;-77
2022/11/05 03:43:31;;;;;;;6.70;6.00;;;;;;;8.91;91.44;97705.30;106404;1312;23414;-78
2022/11/05 03:46:02;;;;;;;7.80;6.30;;;;;;;8.89;91.63;97709.08;106527;1296;22305;-77
2022/11/05 03:48:34;;;;;;;8.40;6.40;;;;;;;8.87;91.56;97714.48;106353;1312;138214;-76
2022/11/05 03:51:28;;;;;;;7.20;6.20;;;;;;;8.85;91.28;97715.73;106552;1310;22244;-78
2022/11/05 03:53:58;;;;;;;8.30;6.60;;;;;;;8.83;91.24;97722.09;106461;1310;138627;-77
2022/11/05 03:56:39;;;;;;;7.70;6.20;;;;;;;8.81;91.07;97723.36;106391;1299;22189;-78
2022/11/05 03:59:09;;;;;;;8.00;7.10;;;;;;;8.78;91.03;97719.10;106292;1312;138904;-78
2022/11/05 04:01:41;;;;;;;7.00;5.60;;;;;;;8.76;91.14;97724.89;106502;1310;23079;-78
2022/11/05 04:04:08;;;;;;;9.40;7.50;;;;;;;8.74;91.06;97724.96;106794;1288;22212;-78
2022/11/05 04:14:49;;;;;;;7.40;6.60;;;;;;;8.66;90.99;97743.15;106522;1310;23174;-78
2022/11/05 04:17:16;;;;;;;9.40;6.90;;;;;;;8.64;90.87;97740.85;106390;1296;138480;-77
2022/11/05 04:25:18;;;;;;;7.00;6.40;;;;;;;8.59;90.65;97734.53;106475;1305;22200;-77
2022/11/05 04:27:44;;;;;;;7.90;6.60;;;;;;;8.57;90.72;97729.79;106368;1291;22173;-78
2022/11/05 04:30:18;;;;;;;7.80;6.10;;;;;;;8.55;90.35;97734.15;106181;1310;138404;-78
2022/11/05 04:33:03;;;;;;;7.50;6.70;;;;;;;8.53;90.44;97738.58;106316;1310;22548;-77
2022/11/05 04:35:38;;;;;;;6.70;6.00;;;;;;;8.51;90.36;97741.48;106411;1310;138741;-78
2022/11/05 04:38:15;;;;;;;8.30;6.90;;;;;;;8.50;90.40;97744.02;106286;1311;22298;-78
2022/11/05 04:40:46;;;;;;;8.30;6.90;;;;;;;8.49;90.43;97747.80;106519;1310;22318;-80
2022/11/05 04:43:15;;;;;;;6.30;5.70;;;;;;;8.48;90.53;97748.86;106224;1312;138062;-78
2022/11/05 04:45:44;;;;;;;7.20;6.00;;;;;;;8.47;90.46;97749.73;106456;1311;22005;-78
2022/11/05 04:48:11;;;;;;;8.60;6.20;;;;;;;8.46;90.54;97753.34;106426;1295;138161;-78
2022/11/05 04:50:38;;;;;;;8.30;7.30;;;;;;;8.45;90.71;97752.03;106449;1312;22201;-78
2022/11/05 04:53:04;;;;;;;7.90;7.00;;;;;;;8.45;90.60;97751.38;106470;1310;138200;-78
2022/11/05 04:55:30;;;;;;;7.40;6.70;;;;;;;8.45;90.51;97753.65;106581;1310;22215;-77
2022/11/05 04:57:56;;;;;;;6.70;5.80;;;;;;;8.43;90.37;97759.48;106540;1297;22402;-78
2022/11/05 05:00:23;;;;;;;6.00;5.50;;;;;;;8.41;90.28;97762.35;106306;1312;138006;-78
2022/11/05 05:02:52;;;;;;;6.20;5.70;;;;;;;8.40;90.23;97762.00;106390;1312;22200;-78
2022/11/05 05:05:20;;;;;;;9.70;6.30;;;;;;;8.38;90.22;97764.20;106436;1310;138212;-78
2022/11/05 05:07:49;;;;;;;5.40;4.90;;;;;;;8.37;90.28;97770.98;106656;1288;22186;-78
2022/11/05 05:10:15;;;;;;;5.90;5.40;;;;;;;8.34;90.21;97777.28;106582;1310;22924;-79
2022/11/05 05:12:41;;;;;;;5.70;5.10;;;;;;;8.35;90.43;97785.05;106306;1310;138266;-78
2022/11/05 05:15:08;;;;;;;5.40;4.80;;;;;;;8.35;90.39;97789.16;106563;1310;22280;-78
2022/11/05 05:17:34;;;;;;;5.20;4.70;;;;;;;8.35;90.30;97789.72;106317;1296;138443;-79
2022/11/05 05:22:53;;;;;;;5.00;4.50;;;;;;;8.36;90.30;97800.04;106425;1304;22195;-78
2022/11/05 05:25:21;;;;;;;5.10;4.30;;;;;;;8.36;90.48;97802.98;106249;1312;22911;-78
2022/11/05 05:27:47;;;;;;;5.10;4.70;;;;;;;8.37;90.39;97799.79;106447;1288;22219;-78
2022/11/05 05:30:13;;;;;;;5.40;4.70;;;;;;;8.37;90.39;97805.80;106359;1312;138109;-78
2022/11/05 05:32:39;;;;;;;6.60;3.90;;;;;;;8.38;90.49;97807.08;106522;1304;22294;-78
2022/11/05 05:35:06;;;;;;;5.60;4.50;;;;;;;8.38;90.56;97807.88;106416;1289;138209;-78
2022/11/05 05:37:32;;;;;;;4.80;4.30;;;;;;;8.39;90.44;97810.60;106476;1310;22943;-77
2022/11/05 05:39:58;;;;;;;5.10;4.60;;;;;;;8.40;90.53;97812.25;106432;1296;22364;-77
2022/11/05 05:42:24;;;;;;;4.80;4.30;;;;;;;8.41;90.69;97817.45;106457;1310;138184;-77
2022/11/05 05:44:50;;;;;;;4.90;4.40;;;;;;;8.42;90.75;97817.19;106585;1310;22169;-77
2022/11/05 05:47:16;;;;;;;5.10;4.60;;;;;;;8.42;90.64;97818.60;106465;1309;138207;-77
2022/11/05 05:49:43;;;;;;;5.20;4.70;;;;;;;8.43;90.69;97818.75;106548;1296;22253;-76
2022/11/05 05:52:09;;;;;;;7.00;4.90;;;;;;;8.44;90.65;97822.16;106485;1311;22239;-76
2022/11/05 05:54:35;;;;;;;6.40;4.50;;;;;;;8.44;90.85;97826.46;106437;1310;138071;-77
2022/11/05 05:57:02;;;;;;;5.00;4.30;;;;;;;8.44;90.97;97830.16;106385;1311;22600;-76
2022/11/05 05:59:28;;;;;;;6.20;4.10;;;;;;;8.44;90.90;97835.30;106302;1298;139034;-76
2022/11/05 06:01:54;;;;;;;4.70;4.20;;;;;;;8.45;91.01;97837.55;106435;1311;22373;-78
2022/11/05 06:04:21;;;;;;;4.60;4.20;;;;;;;8.45;91.02;97844.54;106554;1310;22908;-76
2022/11/05 06:06:47;;;;;;;4.60;4.20;;;;;;;8.45;91.07;97853.11;106395;1304;137982;-75
2022/11/05 06:09:14;;;;;;;5.00;4.30;;;;;;;8.45;91.40;97856.27;106497;1289;22182;-75
2022/11/05 06:11:41;;;;;;;5.90;4.30;;;;;;;8.45;91.33;97860.34;106158;1313;138102;-75
2022/11/05 06:14:13;;;;;;;6.10;4.60;;;;;;;8.46;91.38;97870.61;106343;1304;23060;-75
2022/11/05 06:16:40;;;;;;;6.30;4.90;;;;;;;8.45;91.37;97868.55;106566;1310;22294;-76
2022/11/05 06:19:07;;;;;;;5.30;4.60;;;;;;;8.43;91.48;97870.89;106567;1298;138179;-75
2022/11/05 06:21:33;;;;;;;4.80;4.40;;;;;;;8.41;91.58;97869.53;106385;1310;22282;-75
2022/11/05 06:24:02;;;;;;;4.70;4.20;;;;;;;8.40;91.79;97868.97;106401;1310;138289;-75
2022/11/05 06:26:29;;;;;;;5.80;4.40;;;;;;;8.38;91.85;97877.34;106378;1306;22309;-75
2022/11/05 06:28:58;;;;;;;5.00;4.40;;;;;;;8.35;91.88;97880.81;106226;1297;138126;-75
2022/11/05 06:31:24;;;;;;;;;;;;;;;8.34;92.10;97884.77;106410;1297;23524;-75
2022/11/05 06:33:50;;;;;;;5.60;4.40;;;;;;;8.33;92.49;97892.56;106357;1312;23100;-75
2022/11/05 06:36:18;;;;;;;8.00;4.60;;;;;;;8.32;92.59;97893.19;106123;1312;138259;-75
2022/11/05 06:38:45;;;;;;;6.70;5.50;;;;;;;8.32;92.91;97895.75;106398;1312;22478;-74
2022/11/05 06:41:13;;;;;;;6.90;5.20;;;;;;;8.33;93.11;97897.02;106701;1285;139119;-75
2022/11/05 06:43:40;;;;;;;6.30;4.90;;;;;;;8.34;93.28;97904.25;106583;1310;23220;-75
2022/11/05 06:46:10;;;;;;;5.60;4.90;;;;;;;8.34;93.11;97911.48;106448;1311;22295;-75
2022/11/05 06:48:37;;;;;;;8.80;5.70;;;;;;;8.35;93.24;97914.46;106121;1311;140070;-76
2022/11/05 06:51:04;;;;;;;7.20;5.70;;;;;;;8.36;93.30;97916.70;106297;1294;22245;-74
2022/11/05 06:53:30;;;;;;;7.50;5.60;;;;;;;8.36;93.38;97917.52;106410;1297;138194;-74
2022/11/05 06:55:56;;;;;;;7.10;5.40;;;;;;;8.38;93.58;97919.02;106501;1310;22423;-74
2022/11/05 06:58:23;;;;;;;6.70;5.80;;;;;;;8.39;93.61;97921.96;106512;1306;22195;-74
2022/11/05 07:00:49;;;;;;;6.60;6.00;;;;;;;8.40;93.84;97926.59;106368;1295;138028;-74
2022/11/05 07:03:15;;;;;;;7.50;6.20;;;;;;;8.40;93.82;97927.25;106501;1306;22219;-74
2022/11/05 07:05:47;;;;;;;7.80;6.60;;;;;;;8.40;93.86;97930.66;106300;1310;138282;-74
2022/11/05 07:08:14;;;;;;;7.90;6.50;;;;;;;8.41;94.09;97936.54;106402;1309;22193;-74
2022/11/05 07:10:41;;;;;;;7.30;6.20;;;;;;;8.42;94.02;97937.27;106463;1296;22415;-73
2022/11/05 07:13:07;;;;;;;7.30;6.30;;;;;;;8.42;94.15;97941.91;106380;1282;138881;-73
2022/11/05 07:15:33;;;;;;;11.00;7.10;;;;;;;8.44;94.00;97945.96;106454;1310;22181;-73
2022/11/05 07:18:00;;;;;;;8.00;6.20;;;;;;;8.45;94.20;97954.12;106343;1310;138381;-73
2022/11/05 07:20:27;;;;;;;9.10;6.60;;;;;;;8.45;94.24;97959.27;106304;1298;22282;-74
2022/11/05 07:23:09;;;;;;;7.00;5.90;;;;;;;8.45;94.36;97961.23;106425;1312;22212;-74
2022/11/05 07:25:36;;;;;;;7.20;5.50;;;;;;;8.44;94.29;97965.49;106333;1312;22244;-74
2022/11/05 07:28:03;;;;;;;8.50;6.60;;;;;;;8.44;94.45;97967.17;106542;1310;22203;-74
2022/11/05 07:30:32;;;;;;;7.70;5.80;;;;;;;8.44;94.64;97968.00;106278;1305;138301;-74
2022/11/05 07:32:58;;;;;;;7.00;5.80;;;;;;;8.46;94.67;97970.89;106317;1311;22828;-74
2022/11/05 07:35:25;;;;;;;12.20;7.80;;;;;;;8.46;94.81;97974.92;106401;1310;138188;-74
2022/11/05 07:37:53;;;;;;;9.70;7.50;;;;;;;8.47;94.90;97975.53;106422;1312;22268;-74
2022/11/05 07:40:20;;;;;;;11.10;7.40;;;;;;;8.48;95.04;97974.52;106401;1296;23124;-74
2022/11/05 07:42:52;;;;;;;9.80;7.10;;;;;;;8.50;95.13;97978.36;106337;1310;138635;-74
2022/11/05 07:45:22;;;;;;;9.70;7.90;;;;;;;8.51;95.15;97980.61;106482;1310;22184;-74
2022/11/05 07:47:51;;;;;;;10.50;8.40;;;;;;;8.53;95.31;97984.43;106474;1305;138210;-75
2022/11/05 07:50:19;;;;;;;10.60;8.00;;;;;;;8.53;95.29;97986.13;106469;1310;22928;-74
2022/11/05 07:52:47;;;;;;;12.90;9.00;;;;;;;8.54;95.24;97981.69;106427;1298;22365;-74
2022/11/05 07:55:14;;;;;;;10.60;7.90;;;;;;;8.53;95.39;97985.05;106400;1310;138480;-74
2022/11/05 07:57:42;;;;;;;11.20;8.00;;;;;;;8.53;95.32;97986.08;106634;1302;22241;-74
2022/11/05 08:00:14;;;;;;;13.30;9.00;;;;;;;8.54;95.59;97983.16;106370;1310;138521;-74
2022/11/05 08:02:41;;;;;;;10.70;7.70;;;;;;;8.54;95.63;97978.55;106286;1311;22271;-75
2022/11/05 08:05:08;;;;;;;8.60;7.40;;;;;;;8.56;95.60;97982.77;106260;1311;138621;-74
2022/11/05 08:07:35;;;;;;;9.90;7.50;;;;;;;8.57;95.52;97977.19;106381;1310;22844;-75
2022/11/05 08:10:03;;;;;;;14.10;8.00;;;;;;;8.60;95.60;97983.09;106430;1310;22205;-74
2022/11/05 08:12:30;;;;;;;12.60;8.30;;;;;;;8.62;95.72;97979.55;106402;1296;139319;-75
2022/11/05 08:14:57;;;;;;;11.20;8.30;;;;;;;8.64;95.72;97981.38;106391;1310;22247;-75
2022/11/05 08:17:23;;;;;;;11.10;8.10;;;;;;;8.65;95.92;97983.24;106271;1310;139479;-75
2022/11/05 08:19:49;;;;;;;10.50;7.70;;;;;;;8.66;95.83;97985.34;106515;1310;22213;-75
2022/11/05 08:22:15;;;;;;;12.00;8.40;;;;;;;8.67;95.81;97984.64;106328;1292;22304;-75
2022/11/05 08:24:42;;;;;;;12.70;9.30;;;;;;;8.68;95.66;97989.21;106455;1302;138462;-75
2022/11/05 08:27:08;;;;;;;11.40;8.60;;;;;;;8.67;95.65;97991.00;106537;1310;22958;-75
2022/11/05 08:29:34;;;;;;;14.70;9.60;;;;;;;8.67;95.78;97995.67;106386;1310;138549;-74
2022/11/05 08:32:01;;;;;;;13.70;10.40;;;;;;;8.68;95.75;97994.52;106567;1296;22995;-75
2022/11/05 08:34:27;;;;;;;11.80;9.80;;;;;;;8.69;95.75;97999.05;106513;1309;22246;-74
2022/11/05 08:36:53;;;;;;;15.20;10.00;;;;;;;8.68;95.79;98001.27;106447;1288;138597;-75
2022/11/05 08:39:19;;;;;;;13.40;10.50;;;;;;;8.68;95.79;97999.33;106530;1304;22216;-74
2022/11/05 08:41:46;;;;;;;14.90;10.50;;;;;;;8.67;95.77;98002.94;106286;1304;138862;-75
2022/11/05 08:44:12;;;;;;;13.50;10.00;;;;;;;8.66;95.79;98005.73;106526;1303;22209;-76
2022/11/05 08:46:38;;;;;;;16.00;11.10;;;;;;;8.66;95.76;98010.09;106403;1312;22964;-74
2022/11/05 08:49:10;;;;;;;15.90;11.80;;;;;;;8.65;95.74;98014.63;106445;1311;138765;-75
2022/11/05 08:51:36;;;;;;;14.40;10.80;;;;;;;8.66;95.93;98017.46;106799;1297;23045;-75
2022/11/05 08:54:02;;;;;;;16.40;11.30;;;;;;;8.67;95.94;98021.87;106458;1296;139006;-76
2022/11/05 08:56:29;;;;;;;16.20;12.40;;;;;;;8.67;96.01;98021.82;106530;1313;22217;-75
2022/11/05 08:58:55;;;;;;;17.70;12.20;;;;;;;8.67;95.87;98025.20;106526;1310;22859;-75
2022/11/05 09:01:21;;;;;;;17.50;13.00;;;;;;;8.67;95.94;98025.14;106289;1313;138363;-75
2022/11/05 09:03:51;;;;;;;16.70;12.60;;;;;;;8.68;95.92;98023.75;106490;1295;23336;-75
2022/11/05 09:06:19;;;;;;;21.30;14.80;;;;;;;8.70;96.11;98024.75;106281;1312;138930;-75
2022/11/05 09:08:46;;;;;;;21.70;15.30;;;;;;;8.69;95.66;98026.27;106453;1310;22285;-75
2022/11/05 09:11:13;;;;;;;21.60;15.00;;;;;;;8.69;95.83;98032.03;106428;1312;138696;-75
2022/11/05 09:13:42;;;;;;;23.60;15.80;;;;;;;8.70;95.77;98029.64;106395;1304;22259;-75
2022/11/05 09:16:20;;;;;;;24.40;15.90;;;;;;;8.71;95.81;98035.45;106587;1310;23193;-75
2022/11/05 09:18:47;;;;;;;23.50;16.30;;;;;;;8.71;95.82;98039.27;106287;1310;138792;-75
2022/11/05 09:21:13;;;;;;;21.80;15.60;;;;;;;8.71;95.70;98043.40;106560;1310;22220;-75
2022/11/05 09:23:43;;;;;;;23.80;16.70;;;;;;;8.70;95.71;98042.23;106310;1291;138802;-75
2022/11/05 09:26:11;;;;;;;22.40;16.50;;;;;;;8.71;95.73;98047.75;106384;1312;22209;-75
2022/11/05 09:28:38;;;;;;;21.50;15.20;;;;;;;8.71;95.65;98050.94;106387;1312;22849;-75
2022/11/05 09:31:07;;;;;;;20.90;14.60;;;;;;;8.72;95.42;98050.85;106219;1299;139085;-75
2022/11/05 09:33:36;;;;;;;19.80;14.50;;;;;;;8.70;95.44;98056.86;106386;1296;22065;-75
2022/11/05 09:36:03;;;;;;;20.00;14.30;;;;;;;8.69;95.31;98063.52;106484;1287;242994;-76
2022/11/05 09:38:30;;;;;;;22.20;15.30;;;;;;;8.69;95.28;98059.15;106440;1307;22190;-74
2022/11/05 09:41:22;;;;;;;23.30;14.90;;;;;;;8.69;95.50;98063.45;106400;1310;22295;-74
2022/11/05 09:44:10;;;;;;;21.80;14.70;;;;;;;8.70;95.56;98067.81;106426;1310;22216;-73
2022/11/05 09:46:50;;;;;;;21.10;13.50;;;;;;;8.71;95.66;98066.33;106724;1301;22947;-74
2022/11/05 09:49:38;;;;;;;20.80;14.90;;;;;;;8.71;95.50;98066.62;106570;1303;138902;-73
2022/11/05 09:52:11;;;;;;;19.40;12.60;;;;;;;8.72;95.39;98069.69;106490;1313;22329;-74
2022/11/05 09:54:38;;;;;;;15.70;11.70;;;;;;;8.73;95.52;98075.31;106294;1298;138809;-74
2022/11/05 09:57:16;;;;;;;18.50;13.50;;;;;;;8.74;95.45;98072.66;106287;1306;22109;-74
2022/11/05 09:59:50;;;;;;;18.20;13.10;;;;;;;8.73;95.30;98071.73;106446;1310;138752;-74
2022/11/05 10:02:22;;;;;;;20.70;13.00;;;;;;;8.76;95.56;98071.94;106418;1303;22245;-74
2022/11/05 10:04:56;;;;;;;18.00;13.90;;;;;;;8.79;95.62;98075.42;106544;1309;22205;-74
2022/11/05 10:07:28;;;;;;;19.30;13.70;;;;;;;8.83;95.63;98077.77;106542;1298;140342;-74
2022/11/05 10:10:01;;;;;;;21.30;13.80;;;;;;;8.85;95.74;98079.72;106404;1310;23138;-76
2022/11/05 10:12:35;;;;;;;23.40;16.30;;;;;;;8.88;95.50;98081.41;106282;1310;138863;-74
2022/11/05 10:15:04;;;;;;;22.80;14.00;;;;;;;8.91;95.45;98079.88;106424;1310;22269;-75
2022/11/05 10:17:35;;;;;;;23.20;16.60;;;;;;;8.92;95.32;98084.91;106422;1312;138723;-75
2022/11/05 10:20:13;;;;;;;20.50;15.10;;;;;;;8.96;95.42;98087.23;106419;1312;22317;-75
2022/11/05 10:22:40;;;;;;;21.40;14.40;;;;;;;8.99;95.41;98083.92;106366;1306;23187;-75
2022/11/05 10:25:20;;;;;;;22.90;14.60;;;;;;;9.01;95.38;98082.89;106438;1297;138697;-76
2022/11/05 10:27:56;;;;;;;21.00;14.70;;;;;;;9.03;95.41;98082.92;106414;1311;22989;-76
2022/11/05 10:30:23;;;;;;;19.70;14.40;;;;;;;9.04;95.15;98084.63;106302;1312;138715;-75
2022/11/05 10:32:53;;;;;;;24.00;16.00;;;;;;;9.05;94.99;98086.15;106439;1312;22386;-75
2022/11/05 10:35:22;;;;;;;22.10;15.00;;;;;;;9.07;95.16;98088.04;106694;1297;138660;-75
2022/11/05 10:37:52;;;;;;;19.80;13.60;;;;;;;9.08;95.12;98089.48;106470;1307;22178;-76
2022/11/05 10:40:36;;;;;;;20.20;14.20;;;;;;;9.09;95.04;98090.20;106470;1313;22213;-75
2022/11/05 10:43:09;;;;;;;18.60;13.30;;;;;;;9.10;95.07;98090.96;106333;1313;138883;-75
2022/11/05 10:45:50;;;;;;;18.20;13.20;;;;;;;9.10;95.06;98097.82;106564;1300;23141;-76
2022/11/05 10:48:43;;;;;;;18.60;13.40;;;;;;;9.11;95.04;98099.30;106402;1312;138526;-75
2022/11/05 10:51:10;;;;;;;17.50;13.00;;;;;;;9.13;95.05;98098.75;106468;1312;22145;-76
2022/11/05 10:53:38;;;;;;;18.80;12.40;;;;;;;9.15;94.98;98105.63;106201;1312;138715;-75
2022/11/05 10:56:28;;;;;;;17.60;12.30;;;;;;;9.15;94.98;98112.84;106626;1291;22255;-75
2022/11/05 10:58:57;;;;;;;14.80;11.00;;;;;;;9.14;94.86;98114.12;106407;1312;22196;-75
2022/11/05 11:01:24;;;;;;;17.70;12.80;;;;;;;9.15;94.94;98113.65;106177;1307;138617;-75
2022/11/05 11:04:19;;;;;;;16.60;12.10;;;;;;;9.16;95.01;98113.20;106380;1312;22192;-76
2022/11/05 11:06:51;;;;;;;17.70;12.60;;;;;;;9.19;95.03;98115.30;106326;1313;138468;-75
2022/11/05 11:09:25;;;;;;;15.50;11.70;;;;;;;9.22;95.15;98117.05;106484;1310;22184;-75
2022/11/05 11:12:03;;;;;;;19.70;12.90;;;;;;;9.25;95.10;98120.52;106328;1313;138843;-75
2022/11/05 11:14:29;;;;;;;18.80;13.00;;;;;;;9.26;95.06;98121.94;106306;1313;22290;-75
2022/11/05 11:17:35;;;;;;;16.30;11.90;;;;;;;9.28;95.00;98123.88;106704;1297;22301;-75
2022/11/05 11:20:21;;;;;;;17.40;12.30;;;;;;;9.30;94.88;98126.33;106385;1314;22361;-75
2022/11/05 11:23:14;;;;;;;16.60;13.20;;;;;;;9.32;94.79;98125.59;106215;1307;22258;-75
2022/11/05 11:25:52;;;;;;;18.00;11.80;;;;;;;9.33;94.77;98128.48;106368;1312;23322;-76
2022/11/05 11:28:26;;;;;;;18.20;13.20;;;;;;;9.33;94.83;98126.04;106436;1299;22209;-77
2022/11/05 11:31:01;;;;;;;16.40;11.00;;;;;;;9.31;94.80;98131.72;106683;1302;138653;-75
2022/11/05 11:33:28;;;;;;;18.10;12.00;;;;;;;9.28;94.57;98128.25;106504;1312;22310;-75
2022/11/05 11:35:55;;;;;;;21.00;14.20;;;;;;;9.27;94.66;98129.30;106415;1300;140637;-75
2022/11/05 11:38:23;;;;;;;18.70;13.10;;;;;;;9.26;94.88;98131.85;106518;1303;22877;-75
2022/11/05 11:40:50;;;;;;;19.80;14.70;;;;;;;9.28;95.00;98129.64;106487;1310;22394;-75
2022/11/05 11:43:28;;;;;;;19.80;14.30;;;;;;;9.30;95.09;98129.09;106126;1312;138615;-76
2022/11/05 11:45:56;;;;;;;18.80;13.50;;;;;;;9.30;94.94;98131.80;106423;1296;22234;-75
2022/11/05 11:48:32;;;;;;;20.30;14.10;;;;;;;9.31;95.02;98130.64;106319;1312;138669;-75
2022/11/05 11:51:15;;;;;;;22.80;13.00;;;;;;;9.32;94.86;98131.95;106433;1301;22227;-75
2022/11/05 11:53:41;;;;;;;22.00;13.80;;;;;;;9.33;95.10;98140.79;106466;1291;139235;-75
2022/11/05 11:56:11;;;;;;;19.60;14.30;;;;;;;9.34;95.03;98143.77;106360;1303;22991;-75
2022/11/05 11:58:47;;;;;;;;;;;;;;;9.34;94.93;98146.48;106505;1311;23090;-75
2022/11/05 12:01:29;;;;;;;19.70;13.70;;;;;;;9.32;94.96;98144.52;106617;1308;22068;-75
2022/11/05 12:04:23;;;;;;;21.30;14.40;;;;;;;9.30;95.13;98139.41;106489;1303;22360;-75
2022/11/05 12:07:04;;;;;;;21.40;13.90;;;;;;;9.30;95.09;98143.00;106356;1296;139305;-75
2022/11/05 12:09:51;;;;;;;18.10;12.70;;;;;;;9.30;95.10;98148.16;106471;1310;22183;-76
2022/11/05 12:12:25;;;;;;;23.00;15.40;;;;;;;9.28;95.09;98153.84;106430;1310;22320;-75
2022/11/05 12:15:24;;;;;;;22.00;14.20;;;;;;;9.30;95.37;98153.49;106307;1294;139359;-76
2022/11/05 12:18:09;;;;;;;21.90;14.70;;;;;;;9.31;95.27;98159.75;105766;1308;22326;-75
2022/11/05 12:20:46;;;;;;;21.90;15.10;;;;;;;9.31;95.27;98161.05;105663;1318;139242;-76
2022/11/05 12:23:39;;;;;;;23.40;14.90;;;;;;;9.31;95.37;98162.06;105846;1319;22308;-75